createdAt,value
2022-11-20T00:01:11.509Z,95451.28
2022-11-20T00:03:38.357Z,95435.44
2022-11-20T00:06:07.820Z,95435.31
2022-11-20T00:08:34.475Z,95434.38
2022-11-20T00:11:16.317Z,95447.50
2022-11-20T00:13:47.997Z,95437.72
2022-11-20T00:16:16.411Z,95435.72
2022-11-20T00:18:45.862Z,95433.75
2022-11-20T00:21:15.651Z,95446.00
2022-11-20T00:23:43.151Z,95444.03
2022-11-20T00:26:12.778Z,95446.88
2022-11-20T00:28:39.754Z,95445.81
2022-11-20T00:31:12.441Z,95446.56
2022-11-20T00:33:39.271Z,95447.78
2022-11-20T00:36:08.804Z,95449.91
2022-11-20T00:38:35.718Z,95445.09
2022-11-20T00:41:07.634Z,95456.44
2022-11-20T00:43:34.509Z,95459.38
2022-11-20T00:46:03.270Z,95456.75
2022-11-20T00:48:29.938Z,95456.09
2022-11-20T00:50:56.822Z,95461.97
2022-11-20T00:53:23.636Z,95465.66
2022-11-20T00:55:58.713Z,95453.25
2022-11-20T00:58:26.503Z,95466.72
2022-11-20T01:00:53.184Z,95477.00
2022-11-20T01:03:25.555Z,95464.72
2022-11-20T01:05:53.473Z,95471.75
2022-11-20T01:08:19.968Z,95470.72
2022-11-20T01:10:46.481Z,95463.38
2022-11-20T01:13:31.540Z,95458.97
2022-11-20T01:16:03.813Z,95467.88
2022-11-20T01:18:30.291Z,95476.72
2022-11-20T01:21:00.562Z,95485.75
2022-11-20T01:23:27.067Z,95483.53
2022-11-20T01:25:53.557Z,95486.47
2022-11-20T01:28:20.064Z,95490.47
2022-11-20T01:30:46.558Z,95471.38
2022-11-20T01:33:13.032Z,95487.22
2022-11-20T01:35:39.532Z,95481.00
2022-11-20T01:38:06.031Z,95487.22
2022-11-20T01:40:32.555Z,95482.06
2022-11-20T01:43:22.719Z,95480.81
2022-11-20T01:46:02.467Z,95485.00
2022-11-20T01:48:36.203Z,95484.50
2022-11-20T01:51:04.941Z,95492.78
2022-11-20T01:53:39.951Z,95490.25
2022-11-20T01:56:11.099Z,95482.72
2022-11-20T01:58:41.846Z,95483.13
2022-11-20T02:01:08.668Z,95487.22
2022-11-20T02:03:35.285Z,95477.16
2022-11-20T02:06:31.688Z,95480.91
2022-11-20T02:08:58.428Z,95484.06
2022-11-20T02:11:24.931Z,95484.06
2022-11-20T02:13:51.659Z,95486.06
2022-11-20T02:16:24.172Z,95483.13
2022-11-20T02:18:51.882Z,95480.28
2022-11-20T02:21:31.236Z,95488.91
2022-11-20T02:24:12.232Z,95479.53
2022-11-20T02:27:11.938Z,95473.88
2022-11-20T02:29:43.030Z,95476.38
2022-11-20T02:32:39.517Z,95488.56
2022-11-20T02:35:09.947Z,95496.34
2022-11-20T02:37:39.806Z,95486.34
2022-11-20T02:40:07.007Z,95497.91
2022-11-20T02:42:33.522Z,95476.81
2022-11-20T02:44:59.996Z,95482.91
2022-11-20T02:47:26.556Z,95488.78
2022-11-20T02:49:53.068Z,95485.84
2022-11-20T02:52:19.540Z,95488.69
2022-11-20T02:54:46.040Z,95487.94
2022-11-20T02:57:12.545Z,95489.41
2022-11-20T02:59:39.121Z,95488.16
2022-11-20T03:02:05.929Z,95489.75
2022-11-20T03:04:32.436Z,95471.34
2022-11-20T03:06:58.993Z,95486.16
2022-11-20T03:09:25.558Z,95484.78
2022-11-20T03:11:53.153Z,95488.47
2022-11-20T03:14:19.723Z,95485.53
2022-11-20T03:16:46.259Z,95472.09
2022-11-20T03:19:13.270Z,95482.38
2022-11-20T03:21:40.003Z,95490.66
2022-11-20T03:24:07.246Z,95472.41
2022-11-20T03:26:34.291Z,95480.06
2022-11-20T03:29:03.056Z,95477.34
2022-11-20T03:31:32.275Z,95480.69
2022-11-20T03:33:59.780Z,95479.44
2022-11-20T03:36:27.082Z,95475.97
2022-11-20T03:38:55.383Z,95480.19
2022-11-20T03:41:27.620Z,95480.38
2022-11-20T03:43:58.511Z,95480.69
2022-11-20T03:46:25.533Z,95478.72
2022-11-20T03:48:52.619Z,95471.69
2022-11-20T03:51:27.244Z,95475.13
2022-11-20T03:53:56.828Z,95475.78
2022-11-20T03:56:26.573Z,95478.91
2022-11-20T03:58:53.174Z,95480.28
2022-11-20T04:01:22.610Z,95481.00
2022-11-20T04:03:50.342Z,95488.91
2022-11-20T04:06:26.099Z,95493.09
2022-11-20T04:08:55.448Z,95479.97
2022-11-20T04:11:30.643Z,95490.97
2022-11-20T04:13:59.880Z,95486.78
2022-11-20T04:16:29.670Z,95488.28
2022-11-20T04:19:00.981Z,95491.13
2022-11-20T04:21:28.277Z,95490.25
2022-11-20T04:23:55.493Z,95485.19
2022-11-20T04:26:24.240Z,95490.16
2022-11-20T04:28:51.029Z,95486.34
2022-11-20T04:31:20.316Z,95485.31
2022-11-20T04:33:47.386Z,95493.00
2022-11-20T04:36:20.002Z,95485.31
2022-11-20T04:38:46.933Z,95488.03
2022-11-20T04:41:17.945Z,95484.59
2022-11-20T04:43:50.816Z,95486.16
2022-11-20T04:46:19.618Z,95489.75
2022-11-20T04:48:46.393Z,95498.25
2022-11-20T04:51:13.389Z,95487.31
2022-11-20T04:53:41.093Z,95494.06
2022-11-20T04:56:10.940Z,95480.06
2022-11-20T04:58:38.128Z,95487.63
2022-11-20T05:01:06.838Z,95487.53
2022-11-20T05:03:35.545Z,95489.00
2022-11-20T05:06:06.361Z,95482.81
2022-11-20T05:08:33.381Z,95492.34
2022-11-20T05:11:02.877Z,95478.50
2022-11-20T05:13:29.686Z,95486.91
2022-11-20T05:15:56.349Z,95484.78
2022-11-20T05:18:23.030Z,95474.59
2022-11-20T05:20:56.292Z,95500.13
2022-11-20T05:23:22.910Z,95486.34
2022-11-20T05:25:57.465Z,95479.97
2022-11-20T05:28:26.949Z,95489.41
2022-11-20T05:30:53.510Z,95476.38
2022-11-20T05:33:20.216Z,95499.28
2022-11-20T05:35:46.827Z,95482.69
2022-11-20T05:38:13.440Z,95474.59
2022-11-20T05:40:39.961Z,95488.78
2022-11-20T05:43:06.534Z,95493.06
2022-11-20T05:45:33.062Z,95483.31
2022-11-20T05:48:01.082Z,95494.97
2022-11-20T05:50:30.584Z,95492.97
2022-11-20T05:53:00.624Z,95488.34
2022-11-20T05:55:27.893Z,95497.91
2022-11-20T05:57:55.831Z,95489.19
2022-11-20T06:00:22.694Z,95500.75
2022-11-20T06:02:49.344Z,95498.97
2022-11-20T06:05:15.994Z,95489.53
2022-11-20T06:07:42.610Z,95485.63
2022-11-20T06:10:09.653Z,95491.53
2022-11-20T06:12:36.205Z,95490.56
2022-11-20T06:15:02.811Z,95500.13
2022-11-20T06:17:29.318Z,95487.53
2022-11-20T06:19:55.887Z,95480.78
2022-11-20T06:22:22.549Z,95494.16
2022-11-20T06:24:49.342Z,95497.31
2022-11-20T06:27:16.900Z,95489.22
2022-11-20T06:29:43.474Z,95491.72
2022-11-20T06:32:10.105Z,95498.75
2022-11-20T06:34:36.649Z,95490.78
2022-11-20T06:37:03.197Z,95500.84
2022-11-20T06:39:29.701Z,95495.88
2022-11-20T06:41:59.101Z,95496.03
2022-11-20T06:44:26.436Z,95497.38
2022-11-20T06:46:52.925Z,95501.44
2022-11-20T06:49:19.736Z,95504.63
2022-11-20T06:51:46.463Z,95499.25
2022-11-20T06:54:13.026Z,95506.50
2022-11-20T06:56:39.553Z,95528.88
2022-11-20T06:59:07.201Z,95520.56
2022-11-20T07:01:33.799Z,95523.28
2022-11-20T07:04:00.349Z,95520.56
2022-11-20T07:06:26.844Z,95535.78
2022-11-20T07:08:53.675Z,95522.31
2022-11-20T07:11:20.250Z,95531.41
2022-11-20T07:13:46.746Z,95521.06
2022-11-20T07:16:13.779Z,95535.69
2022-11-20T07:18:40.327Z,95535.56
2022-11-20T07:21:09.657Z,95533.88
2022-11-20T07:23:36.777Z,95543.75
2022-11-20T07:26:08.208Z,95539.31
2022-11-20T07:28:35.751Z,95546.19
2022-11-20T07:31:02.717Z,95540.00
2022-11-20T07:33:29.520Z,95535.06
2022-11-20T07:35:56.156Z,95540.41
2022-11-20T07:38:22.715Z,95534.34
2022-11-20T07:40:49.941Z,95527.59
2022-11-20T07:43:16.462Z,95540.13
2022-11-20T07:45:42.992Z,95538.63
2022-11-20T07:48:09.510Z,95541.69
2022-11-20T07:50:35.999Z,95538.00
2022-11-20T07:53:04.847Z,95546.22
2022-11-20T07:55:32.214Z,95541.91
2022-11-20T07:57:59.564Z,95540.44
2022-11-20T08:00:27.652Z,95545.06
2022-11-20T08:02:54.463Z,95546.31
2022-11-20T08:05:21.223Z,95547.78
2022-11-20T08:07:47.840Z,95544.75
2022-11-20T08:10:16.927Z,95543.06
2022-11-20T08:13:10.213Z,95550.94
2022-11-20T08:15:38.351Z,95531.50
2022-11-20T08:21:03.363Z,95561.44
2022-11-20T08:23:29.902Z,95562.06
2022-11-20T08:25:56.482Z,95551.88
2022-11-20T08:28:23.039Z,95560.06
2022-11-20T08:30:51.129Z,95556.63
2022-11-20T08:33:18.970Z,95552.72
2022-11-20T08:35:45.751Z,95552.19
2022-11-20T08:38:12.306Z,95552.19
2022-11-20T08:40:38.843Z,95554.59
2022-11-20T08:43:05.440Z,95558.31
2022-11-20T08:45:34.702Z,95551.16
2022-11-20T08:48:03.541Z,95548.31
2022-11-20T08:50:32.601Z,95557.16
2022-11-20T08:53:08.179Z,95557.38
2022-11-20T08:55:36.581Z,95557.47
2022-11-20T08:58:07.084Z,95556.09
2022-11-20T09:00:34.587Z,95561.69
2022-11-20T09:03:02.218Z,95555.47
2022-11-20T09:05:29.943Z,95557.69
2022-11-20T09:08:00.029Z,95552.75
2022-11-20T09:10:27.892Z,95549.91
2022-11-20T09:12:55.987Z,95554.34
2022-11-20T09:15:23.504Z,95548.78
2022-11-20T09:17:53.030Z,95553.91
2022-11-20T09:20:19.951Z,95553.50
2022-11-20T09:22:46.490Z,95561.16
2022-11-20T09:25:13.071Z,95549.59
2022-11-20T09:27:39.684Z,95553.41
2022-11-20T09:30:06.991Z,95531.13
2022-11-20T09:32:33.576Z,95538.88
2022-11-20T09:37:27.546Z,95544.75
2022-11-20T09:39:54.315Z,95525.44
2022-11-20T09:42:42.199Z,95541.09
2022-11-20T09:45:27.040Z,95538.25
2022-11-20T09:48:00.535Z,95542.03
2022-11-20T09:50:32.162Z,95543.50
2022-11-20T09:53:13.702Z,95531.72
2022-11-20T09:55:41.008Z,95529.59
2022-11-20T09:58:14.882Z,95534.09
2022-11-20T10:00:41.991Z,95532.63
2022-11-20T10:03:17.824Z,95526.53
2022-11-20T10:05:49.512Z,95521.81
2022-11-20T10:08:33.354Z,95515.59
2022-11-20T10:11:20.244Z,95517.69
2022-11-20T10:14:01.240Z,95514.41
2022-11-20T10:17:05.492Z,95494.88
2022-11-20T10:20:09.488Z,95518.38
2022-11-20T10:23:00.555Z,95510.16
2022-11-20T10:25:30.170Z,95508.78
2022-11-20T10:28:07.383Z,95512.66
2022-11-20T10:30:41.559Z,95520.09
2022-11-20T10:33:20.498Z,95500.75
2022-11-20T10:35:54.586Z,95509.66
2022-11-20T10:38:46.175Z,95513.34
2022-11-20T10:41:27.345Z,95513.25
2022-11-20T10:44:02.801Z,95512.31
2022-11-20T10:46:38.522Z,95507.56
2022-11-20T10:49:12.953Z,95510.78
2022-11-20T10:51:51.601Z,95507.50
2022-11-20T10:54:41.814Z,95496.25
2022-11-20T10:57:34.121Z,95506.84
2022-11-20T11:00:11.724Z,95504.94
2022-11-20T11:02:48.837Z,95497.53
2022-11-20T11:05:27.012Z,95499.81
2022-11-20T11:07:58.868Z,95491.66
2022-11-20T11:10:35.870Z,95495.44
2022-11-20T11:13:02.579Z,95498.09
2022-11-20T11:15:37.064Z,95490.94
2022-11-20T11:18:03.860Z,95490.75
2022-11-20T11:20:30.865Z,95488.63
2022-11-20T11:22:59.527Z,95488.28
2022-11-20T11:25:28.765Z,95478.47
2022-11-20T11:27:59.792Z,95484.44
2022-11-20T11:30:29.187Z,95481.94
2022-11-20T11:33:07.518Z,95494.69
2022-11-20T11:35:34.399Z,95473.50
2022-11-20T11:38:24.100Z,95474.06
2022-11-20T11:40:53.918Z,95473.78
2022-11-20T11:43:45.020Z,95474.34
2022-11-20T11:46:33.989Z,95468.84
2022-11-20T11:49:06.677Z,95473.25
2022-11-20T11:51:47.580Z,95471.94
2022-11-20T11:54:37.413Z,95470.22
2022-11-20T11:57:13.353Z,95473.16
2022-11-20T11:59:52.826Z,95469.13
2022-11-20T12:02:33.060Z,95461.03
2022-11-20T12:05:19.939Z,95471.69
2022-11-20T12:08:11.053Z,95469.00
2022-11-20T12:10:46.287Z,95460.66
2022-11-20T12:13:31.134Z,95479.94
2022-11-20T12:15:57.742Z,95482.03
2022-11-20T12:18:24.552Z,95493.22
2022-11-20T12:21:10.520Z,95499.06
2022-11-20T12:24:05.115Z,95489.53
2022-11-20T12:26:40.997Z,95475.66
2022-11-20T12:29:32.282Z,95478.03
2022-11-20T12:32:17.383Z,95468.50
2022-11-20T12:35:42.952Z,95477.34
2022-11-20T12:38:52.039Z,95472.19
2022-11-20T12:41:56.125Z,95465.44
2022-11-20T12:44:41.097Z,95463.88
2022-11-20T12:47:10.744Z,95462.56
2022-11-20T12:49:48.576Z,95464.47
2022-11-20T12:52:37.107Z,95464.75
2022-11-20T12:55:12.473Z,95474.13
2022-11-20T12:57:51.194Z,95471.69
2022-11-20T13:00:23.156Z,95464.53
2022-11-20T13:03:11.323Z,95461.31
2022-11-20T13:06:03.225Z,95468.38
2022-11-20T13:08:57.015Z,95458.75
2022-11-20T13:11:43.787Z,95466.22
2022-11-20T13:14:45.988Z,95464.97
2022-11-20T13:17:25.191Z,95453.41
2022-11-20T13:19:59.428Z,95448.13
2022-11-20T13:22:43.246Z,95460.72
2022-11-20T13:25:31.459Z,95455.22
2022-11-20T13:28:00.282Z,95458.28
2022-11-20T13:30:28.847Z,95451.44
2022-11-20T13:33:02.217Z,95440.44
2022-11-20T13:35:34.909Z,95446.19
2022-11-20T13:38:15.623Z,95442.34
2022-11-20T13:41:00.255Z,95439.13
2022-11-20T13:43:37.856Z,95437.75
2022-11-20T13:46:09.444Z,95450.03
2022-11-20T13:48:44.961Z,95435.53
2022-11-20T13:51:17.509Z,95439.75
2022-11-20T13:54:07.781Z,95436.91
2022-11-20T13:56:45.989Z,95447.09
2022-11-20T13:59:41.134Z,95436.88
2022-11-20T14:02:19.331Z,95438.53
2022-11-20T14:04:49.282Z,95442.94
2022-11-20T14:07:18.848Z,95443.88
2022-11-20T14:09:56.896Z,95441.22
2022-11-20T14:12:29.730Z,95431.88
2022-11-20T14:14:56.705Z,95435.75
2022-11-20T14:17:30.132Z,95437.31
2022-11-20T14:20:02.378Z,95440.88
2022-11-20T14:22:29.353Z,95441.72
2022-11-20T14:25:13.255Z,95446.22
2022-11-20T14:27:42.588Z,95437.59
2022-11-20T14:30:17.088Z,95431.81
2022-11-20T14:32:45.164Z,95441.72
2022-11-20T14:35:21.679Z,95429.97
2022-11-20T14:37:48.745Z,95436.03
2022-11-20T14:40:26.714Z,95444.66
2022-11-20T14:42:54.006Z,95431.91
2022-11-20T14:45:22.069Z,95428.41
2022-11-20T14:47:49.756Z,95434.84
2022-11-20T14:50:27.994Z,95435.75
2022-11-20T14:52:57.339Z,95435.88
2022-11-20T14:55:34.638Z,95425.97
2022-11-20T14:58:21.873Z,95435.97
2022-11-20T15:01:04.474Z,95441.09
2022-11-20T15:03:41.902Z,95446.78
2022-11-20T15:06:12.605Z,95436.75
2022-11-20T15:08:39.335Z,95436.94
2022-11-20T15:11:19.227Z,95432.63
2022-11-20T15:13:46.013Z,95432.91
2022-11-20T15:16:21.548Z,95424.28
2022-11-20T15:18:48.930Z,95432.91
2022-11-20T15:21:18.056Z,95447.28
2022-11-20T15:23:44.720Z,95424.38
2022-11-20T15:26:19.496Z,95436.22
2022-11-20T15:28:48.803Z,95434.19
2022-11-20T15:31:18.355Z,95429.59
2022-11-20T15:33:45.486Z,95431.25
2022-11-20T15:36:12.068Z,95434.09
2022-11-20T15:38:38.697Z,95428.50
2022-11-20T15:41:05.598Z,95432.91
2022-11-20T15:43:32.350Z,95433.75
2022-11-20T15:46:06.245Z,95407.34
2022-11-20T15:48:32.825Z,95423.97
2022-11-20T15:51:11.594Z,95426.59
2022-11-20T15:53:42.973Z,95440.19
2022-11-20T15:56:13.919Z,95425.75
2022-11-20T15:58:41.759Z,95430.91
2022-11-20T16:01:14.499Z,95429.34
2022-11-20T16:03:41.352Z,95426.13
2022-11-20T16:06:08.242Z,95436.94
2022-11-20T16:08:35.018Z,95419.63
2022-11-20T16:11:02.199Z,95426.94
2022-11-20T16:13:47.344Z,95415.59
2022-11-20T16:16:37.851Z,95426.13
2022-11-20T16:19:04.849Z,95417.63
2022-11-20T16:21:32.454Z,95423.19
2022-11-20T16:24:05.462Z,95411.94
2022-11-20T16:26:33.066Z,95409.09
2022-11-20T16:29:00.954Z,95415.31
2022-11-20T16:31:27.636Z,95409.34
2022-11-20T16:33:56.614Z,95409.34
2022-11-20T16:36:25.344Z,95412.00
2022-11-20T16:38:57.129Z,95398.97
2022-11-20T16:41:24.602Z,95393.72
2022-11-20T16:43:53.723Z,95401.72
2022-11-20T16:46:23.504Z,95403.72
2022-11-20T16:48:57.873Z,95399.22
2022-11-20T16:51:25.809Z,95399.31
2022-11-20T16:53:53.339Z,95410.28
2022-11-20T16:56:27.002Z,95397.47
2022-11-20T16:58:55.935Z,95392.78
2022-11-20T17:01:24.012Z,95393.72
2022-11-20T17:03:55.174Z,95399.47
2022-11-20T17:06:24.830Z,95400.66
2022-11-20T17:08:52.028Z,95396.25
2022-11-20T17:11:19.861Z,95389.06
2022-11-20T17:13:46.946Z,95380.84
2022-11-20T17:16:17.147Z,95384.38
2022-11-20T17:18:44.463Z,95379.69
2022-11-20T17:21:12.224Z,95396.28
2022-11-20T17:23:44.045Z,95387.78
2022-11-20T17:26:14.687Z,95387.59
2022-11-20T17:28:41.487Z,95372.16
2022-11-20T17:31:17.617Z,95374.69
2022-11-20T17:33:45.905Z,95388.13
2022-11-20T17:36:14.633Z,95379.13
2022-11-20T17:38:41.744Z,95381.56
2022-11-20T17:41:13.670Z,95366.25
2022-11-20T17:43:42.742Z,95367.41
2022-11-20T17:46:12.130Z,95379.03
2022-11-20T17:48:42.260Z,95376.97
2022-11-20T17:51:17.926Z,95376.09
2022-11-20T17:53:48.730Z,95358.06
2022-11-20T17:56:34.323Z,95367.41
2022-11-20T17:59:04.669Z,95373.72
2022-11-20T18:01:31.920Z,95359.25
2022-11-20T18:03:58.577Z,95366.38
2022-11-20T18:06:27.224Z,95371.59
2022-11-20T18:08:54.053Z,95358.69
2022-11-20T18:11:26.584Z,95352.50
2022-11-20T18:14:14.953Z,95363.13
2022-11-20T18:16:51.107Z,95367.94
2022-11-20T18:19:20.532Z,95367.13
2022-11-20T18:21:47.358Z,95355.78
2022-11-20T18:24:14.821Z,95355.47
2022-11-20T18:26:44.504Z,95358.63
2022-11-20T18:29:13.509Z,95352.53
2022-11-20T18:31:41.208Z,95351.38
2022-11-20T18:34:11.682Z,95344.03
2022-11-20T18:36:38.534Z,95346.44
2022-11-20T18:39:05.583Z,95342.84
2022-11-20T18:41:51.504Z,95344.66
2022-11-20T18:44:42.430Z,95339.00
2022-11-20T18:47:14.538Z,95336.78
2022-11-20T18:49:50.968Z,95332.28
2022-11-20T18:52:20.133Z,95326.81
2022-11-20T18:54:46.745Z,95315.69
2022-11-20T18:57:16.112Z,95316.75
2022-11-20T18:59:43.308Z,95319.69
2022-11-20T19:02:14.910Z,95313.19
2022-11-20T19:04:41.915Z,95321.16
2022-11-20T19:07:11.938Z,95299.31
2022-11-20T19:09:40.419Z,95311.81
2022-11-20T19:12:09.247Z,95303.84
2022-11-20T19:14:35.887Z,95301.13
2022-11-20T19:17:03.774Z,95291.25
2022-11-20T19:19:30.690Z,95311.19
2022-11-20T19:21:57.309Z,95291.44
2022-11-20T19:24:24.445Z,95292.41
2022-11-20T19:26:51.323Z,95292.59
2022-11-20T19:29:18.988Z,95293.34
2022-11-20T19:31:45.595Z,95297.31
2022-11-20T19:34:12.223Z,95291.13
2022-11-20T19:36:44.688Z,95286.16
2022-11-20T19:39:12.249Z,95291.50
2022-11-20T19:41:40.573Z,95283.81
2022-11-20T19:44:10.131Z,95280.47
2022-11-20T19:46:38.340Z,95281.44
2022-11-20T19:49:09.309Z,95295.50
2022-11-20T19:51:38.087Z,95289.16
2022-11-20T19:54:05.759Z,95282.03
2022-11-20T19:56:33.748Z,95264.19
2022-11-20T19:59:01.525Z,95260.53
2022-11-20T20:01:30.647Z,95269.50
2022-11-20T20:04:01.503Z,95256.09
2022-11-20T20:06:29.252Z,95254.53
2022-11-20T20:09:05.930Z,95263.06
2022-11-20T20:11:34.130Z,95250.94
2022-11-20T20:14:03.011Z,95248.53
2022-11-20T20:16:29.709Z,95257.97
2022-11-20T20:18:57.751Z,95258.91
2022-11-20T20:21:24.583Z,95249.13
2022-11-20T20:23:53.515Z,95251.94
2022-11-20T20:26:21.353Z,95244.41
2022-11-20T20:28:48.349Z,95244.41
2022-11-20T20:31:18.597Z,95244.09
2022-11-20T20:33:45.853Z,95244.53
2022-11-20T20:36:15.370Z,95233.31
2022-11-20T20:38:43.162Z,95233.00
2022-11-20T20:41:10.534Z,95243.81
2022-11-20T20:43:56.240Z,95248.09
2022-11-20T20:46:23.778Z,95245.38
2022-11-20T20:48:54.453Z,95242.63
2022-11-20T20:51:22.629Z,95229.63
2022-11-20T20:53:49.879Z,95232.66
2022-11-20T20:56:17.826Z,95231.50
2022-11-20T20:58:44.673Z,95229.72
2022-11-20T21:01:14.051Z,95235.06
2022-11-20T21:03:41.572Z,95221.63
2022-11-20T21:06:10.999Z,95227.91
2022-11-20T21:08:40.699Z,95224.97
2022-11-20T21:11:09.574Z,95224.16
2022-11-20T21:13:37.573Z,95222.59
2022-11-20T21:16:05.231Z,95215.34
2022-11-20T21:18:32.359Z,95216.44
2022-11-20T21:21:17.590Z,95211.19
2022-11-20T21:23:48.016Z,95208.16
2022-11-20T21:26:16.145Z,95214.03
2022-11-20T21:28:43.210Z,95215.59
2022-11-20T21:31:16.102Z,95215.69
2022-11-20T21:33:45.494Z,95226.81
2022-11-20T21:36:14.713Z,95226.41
2022-11-20T21:38:41.654Z,95223.81
2022-11-20T21:41:10.536Z,95233.31
2022-11-20T21:43:37.778Z,95240.75
2022-11-20T21:46:09.698Z,95237.38
2022-11-20T21:48:37.954Z,95248.00
2022-11-20T21:51:06.960Z,95250.19
2022-11-20T21:53:36.705Z,95252.41
2022-11-20T21:56:09.149Z,95254.06
2022-11-20T21:58:36.757Z,95258.91
2022-11-20T22:01:11.334Z,95260.81
2022-11-20T22:03:38.612Z,95257.22
2022-11-20T22:06:06.708Z,95263.50
2022-11-20T22:08:38.126Z,95261.03
2022-11-20T22:11:07.341Z,95251.59
2022-11-20T22:13:52.872Z,95243.84
2022-11-20T22:16:19.675Z,95238.72
2022-11-20T22:18:56.816Z,95238.19
2022-11-20T22:21:26.085Z,95243.31
2022-11-20T22:23:53.301Z,95239.56
2022-11-20T22:26:22.618Z,95235.78
2022-11-20T22:28:51.333Z,95231.69
2022-11-20T22:31:19.400Z,95244.69
2022-11-20T22:33:46.139Z,95235.16
2022-11-20T22:36:15.759Z,95237.56
2022-11-20T22:38:42.728Z,95242.50
2022-11-20T22:41:18.345Z,95246.38
2022-11-20T22:43:45.500Z,95251.72
2022-11-20T22:46:17.496Z,95250.34
2022-11-20T22:48:49.437Z,95262.50
2022-11-20T22:51:17.967Z,95248.97
2022-11-20T22:53:44.971Z,95254.72
2022-11-20T22:56:12.809Z,95256.19
2022-11-20T22:58:41.559Z,95249.91
2022-11-20T23:01:16.885Z,95257.09
2022-11-20T23:03:46.096Z,95258.34
2022-11-20T23:06:13.451Z,95236.53
2022-11-20T23:08:41.625Z,95228.88
2022-11-20T23:11:20.034Z,95246.16
2022-11-20T23:13:46.833Z,95253.69
2022-11-20T23:16:15.827Z,95240.19
2022-11-20T23:18:43.407Z,95240.69
2022-11-20T23:21:18.590Z,95241.81
2022-11-20T23:23:50.605Z,95228.44
2022-11-20T23:26:19.198Z,95237.47
2022-11-20T23:28:46.199Z,95231.16
2022-11-20T23:31:14.098Z,95235.34
2022-11-20T23:33:42.820Z,95239.09
2022-11-20T23:36:09.928Z,95243.06
2022-11-20T23:38:36.731Z,95233.97
2022-11-20T23:41:04.183Z,95236.91
2022-11-20T23:43:31.346Z,95234.69
2022-11-20T23:46:00.112Z,95231.25
2022-11-20T23:48:31.874Z,95226.66
2022-11-20T23:50:58.732Z,95249.16
2022-11-20T23:53:25.821Z,95248.34
2022-11-20T23:55:58.562Z,95244.66
2022-11-20T23:58:35.699Z,95235.13
